Terminal Aerodrome Forecast
Issued by NWS

Home | Current Version | Previous Version | Text Only | Print | Product List | Glossary On
Versions: 1 2 3 4 5 6 7 8 9 10 11 12 13 14 15 16 17 18
000
FTUS43 KGRB 180520
TAFMTW
TAF
KMTW 180520Z 1806/1906 VRB03KT 2SM -RA BR SCT008 OVC015
     FM180700 33004KT 2SM -DZ BR OVC008
     FM181400 35015G22KT P6SM SCT010 OVC022
     FM181800 33016G24KT P6SM SCT025 BKN028
     FM190100 31014KT P6SM BKN035=

USA.gov is the U.S. government's official web portal to all federal, state and local government web resources and services.